Time;durP1;ratioP1;P1;durP2;ratioP2;P2;SDS_P1;SDS_P2;PMS_P1;PMS_P2;Temp;Humidity;BMP_temperature;BMP_pressure;BME280_temperature;BME280_humidity;BME280_pressure;Samples;Min_cycle;Max_cycle;Signal;HPM_P1;HPM_P2
2023/08/22 00:00:46;;;;;;;14.57;9.00;;;19.00;99.90;;;;;;4885376;29;20220;-65
2023/08/22 00:03:12;;;;;;;19.13;9.82;;;19.00;99.90;;;;;;4892956;29;20193;-65
2023/08/22 00:05:38;;;;;;;15.15;9.05;;;19.00;99.90;;;;;;4881737;29;20189;-66
2023/08/22 00:08:05;;;;;;;23.67;10.45;;;19.10;99.90;;;;;;4890447;29;20207;-66
2023/08/22 00:10:34;;;;;;;17.80;9.50;;;19.10;99.90;;;;;;4897187;29;20650;-66
2023/08/22 00:13:01;;;;;;;20.00;11.15;;;19.10;99.90;;;;;;4896774;29;20196;-67
2023/08/22 00:15:28;;;;;;;18.35;10.35;;;19.10;99.90;;;;;;4897032;29;20649;-66
2023/08/22 00:17:54;;;;;;;17.92;10.05;;;19.20;99.90;;;;;;4893133;29;20189;-67
2023/08/22 00:20:22;;;;;;;21.50;10.75;;;19.20;99.90;;;;;;4880275;29;20193;-66
2023/08/22 00:22:48;;;;;;;18.92;9.77;;;19.20;99.90;;;;;;4888101;29;20197;-67
2023/08/22 00:25:14;;;;;;;16.92;9.38;;;19.20;99.90;;;;;;4886574;29;20201;-67
2023/08/22 00:27:40;;;;;;;25.10;10.95;;;19.20;99.90;;;;;;4896408;29;20244;-66
2023/08/22 00:30:07;;;;;;;18.17;10.50;;;19.20;99.90;;;;;;4896646;29;20188;-67
2023/08/22 00:32:34;;;;;;;19.17;10.73;;;19.20;99.90;;;;;;4895678;29;20275;-66
2023/08/22 00:35:00;;;;;;;18.65;10.77;;;19.20;99.90;;;;;;4908799;29;20224;-66
2023/08/22 00:37:27;;;;;;;19.50;10.35;;;19.20;99.90;;;;;;4895380;29;20267;-65
2023/08/22 00:39:54;;;;;;;22.10;10.93;;;19.20;99.90;;;;;;4878732;29;20194;-62
2023/08/22 00:42:20;;;;;;;23.83;10.25;;;19.20;99.90;;;;;;4884201;29;20220;-64
2023/08/22 00:44:46;;;;;;;17.10;9.43;;;19.20;99.90;;;;;;4897582;29;20681;-66
2023/08/22 00:47:13;;;;;;;23.35;9.68;;;19.20;99.90;;;;;;4894916;29;20203;-66
2023/08/22 00:49:40;;;;;;;19.02;9.98;;;19.20;99.90;;;;;;4877579;29;20622;-65
2023/08/22 00:52:07;;;;;;;21.02;9.40;;;19.10;99.90;;;;;;4891686;29;20199;-65
2023/08/22 00:54:34;;;;;;;16.67;9.02;;;19.10;99.90;;;;;;4895623;29;20189;-68
2023/08/22 00:57:00;;;;;;;19.85;8.93;;;19.10;99.90;;;;;;4880146;29;20284;-65
2023/08/22 00:59:27;;;;;;;21.33;8.88;;;19.00;99.90;;;;;;4896628;29;20188;-66
2023/08/22 01:01:53;;;;;;;17.23;9.77;;;19.00;99.90;;;;;;4897146;29;20707;-63
2023/08/22 01:04:20;;;;;;;17.77;8.63;;;18.90;99.90;;;;;;4886829;29;20192;-66
2023/08/22 01:07:14;;;;;;;20.55;9.18;;;18.90;99.90;;;;;;4893314;29;20185;-67
2023/08/22 01:09:54;;;;;;;21.02;9.18;;;18.90;99.90;;;;;;4897168;29;20204;-63
2023/08/22 01:12:31;;;;;;;21.77;9.35;;;18.90;99.90;;;;;;4894865;29;20195;-65
2023/08/22 01:15:22;;;;;;;17.38;9.68;;;18.90;99.90;;;;;;4911518;29;20344;-67
2023/08/22 01:17:49;;;;;;;19.42;10.10;;;18.90;99.90;;;;;;4893295;29;20181;-65
2023/08/22 01:20:16;;;;;;;24.27;11.00;;;18.90;99.90;;;;;;4896522;29;20193;-66
2023/08/22 01:22:42;;;;;;;17.90;10.82;;;18.90;99.90;;;;;;4887894;29;20255;-64
2023/08/22 01:25:09;;;;;;;18.40;10.25;;;18.90;99.90;;;;;;4895801;29;20255;-68
2023/08/22 01:28:26;;;;;;;28.23;12.13;;;18.90;99.90;;;;;;4886041;29;20200;-67
2023/08/22 01:31:14;;;;;;;23.48;11.88;;;18.90;99.90;;;;;;4848943;29;20629;-68
2023/08/22 01:34:09;;;;;;;22.23;12.32;;;18.90;99.90;;;;;;4894576;29;20233;-66
2023/08/22 01:36:37;;;;;;;21.88;11.82;;;18.90;99.90;;;;;;4878839;29;20292;-68
2023/08/22 01:39:07;;;;;;;18.42;11.35;;;18.90;99.90;;;;;;4894783;29;20741;-67
2023/08/22 01:41:34;;;;;;;21.33;10.60;;;18.90;99.90;;;;;;4885169;29;20288;-66
2023/08/22 01:44:01;;;;;;;21.67;11.77;;;18.90;99.90;;;;;;4894391;29;20232;-67
2023/08/22 01:46:27;;;;;;;22.05;11.40;;;18.90;99.90;;;;;;4896024;29;20193;-66
2023/08/22 01:48:53;;;;;;;22.35;12.60;;;18.90;99.90;;;;;;4894754;29;20558;-67
2023/08/22 01:51:19;;;;;;;22.30;13.02;;;18.90;99.90;;;;;;4895743;29;20206;-67
2023/08/22 01:53:45;;;;;;;25.95;12.43;;;18.90;99.90;;;;;;4883856;29;20201;-67
2023/08/22 01:56:11;;;;;;;21.60;12.07;;;18.80;99.90;;;;;;4884469;29;20650;-67
2023/08/22 01:58:37;;;;;;;22.13;12.23;;;18.80;99.90;;;;;;4889545;29;20208;-66
2023/08/22 02:01:13;;;;;;;25.50;12.77;;;18.80;99.90;;;;;;4899202;29;20274;-66
2023/08/22 02:03:43;;;;;;;21.52;12.85;;;18.80;99.90;;;;;;4889508;29;20192;-65
2023/08/22 02:06:09;;;;;;;23.73;13.07;;;18.70;99.90;;;;;;4890249;29;20188;-67
2023/08/22 02:08:37;;;;;;;21.92;12.43;;;18.70;99.90;;;;;;4898643;29;20280;-66
2023/08/22 02:11:03;;;;;;;23.27;13.07;;;18.70;99.90;;;;;;4899894;29;20222;-68
2023/08/22 02:13:29;;;;;;;24.30;13.05;;;18.70;99.90;;;;;;4905090;29;20212;-65
2023/08/22 02:15:55;;;;;;;22.42;13.57;;;18.70;99.90;;;;;;4891302;29;20220;-67
2023/08/22 02:18:21;;;;;;;25.33;14.35;;;18.70;99.90;;;;;;4899265;29;20672;-65
2023/08/22 02:20:53;;;;;;;23.92;14.30;;;18.60;99.90;;;;;;4897813;29;20216;-68
2023/08/22 02:23:19;;;;;;;24.90;15.20;;;18.60;99.90;;;;;;4882499;29;20569;-68
2023/08/22 02:25:46;;;;;;;28.50;14.02;;;18.60;99.90;;;;;;4900129;29;20197;-66
2023/08/22 02:28:13;;;;;;;25.13;14.15;;;18.60;99.90;;;;;;4894511;29;20642;-69
2023/08/22 02:30:39;;;;;;;24.38;14.65;;;18.60;99.90;;;;;;4886949;29;20189;-68
2023/08/22 02:33:05;;;;;;;25.67;14.90;;;18.60;99.90;;;;;;4913322;29;20220;-68
2023/08/22 02:35:31;;;;;;;23.70;13.75;;;18.50;99.90;;;;;;4898829;29;20184;-64
2023/08/22 02:37:57;;;;;;;21.92;14.20;;;18.50;99.90;;;;;;4892584;29;20564;-73
2023/08/22 02:40:23;;;;;;;21.48;13.30;;;18.50;99.90;;;;;;4899056;29;20565;-63
2023/08/22 02:42:49;;;;;;;21.60;13.25;;;18.50;99.90;;;;;;4897226;29;20275;-66
2023/08/22 02:45:16;;;;;;;21.88;13.05;;;18.40;99.90;;;;;;4897348;29;20281;-67
2023/08/22 02:47:42;;;;;;;22.42;13.50;;;18.40;99.90;;;;;;4911141;29;20205;-66
2023/08/22 02:50:08;;;;;;;20.38;12.68;;;18.30;99.90;;;;;;4899615;29;20197;-67
2023/08/22 02:52:35;;;;;;;23.88;13.43;;;18.30;99.90;;;;;;4895720;29;20720;-66
2023/08/22 02:55:03;;;;;;;23.92;13.02;;;18.30;99.90;;;;;;4913785;29;20619;-67
2023/08/22 02:57:29;;;;;;;24.10;13.07;;;18.30;99.90;;;;;;4897011;29;20191;-66
2023/08/22 02:59:54;;;;;;;20.15;13.35;;;18.20;99.90;;;;;;4890145;29;20197;-67
2023/08/22 03:02:20;;;;;;;24.75;13.93;;;18.20;99.90;;;;;;4897728;29;20213;-68
2023/08/22 03:04:46;;;;;;;22.02;13.15;;;18.20;99.90;;;;;;4898037;29;20200;-68
2023/08/22 03:07:13;;;;;;;23.75;13.90;;;18.10;99.90;;;;;;4913525;29;20207;-67
2023/08/22 03:09:40;;;;;;;25.17;13.15;;;18.10;99.90;;;;;;4889816;29;20197;-69
2023/08/22 03:12:07;;;;;;;24.90;14.40;;;18.10;99.90;;;;;;4896354;29;20195;-69
2023/08/22 03:14:33;;;;;;;22.27;13.38;;;18.00;99.90;;;;;;4912690;29;20197;-70
2023/08/22 03:17:00;;;;;;;21.58;12.30;;;18.00;99.90;;;;;;4897983;29;20196;-69
2023/08/22 03:19:26;;;;;;;20.38;13.02;;;18.00;99.90;;;;;;4894021;29;20193;-69
2023/08/22 03:21:58;;;;;;;18.95;11.93;;;18.00;99.90;;;;;;4897614;29;20227;-69
2023/08/22 03:24:24;;;;;;;18.52;12.13;;;18.00;99.90;;;;;;4897814;29;20193;-69
2023/08/22 03:26:50;;;;;;;21.42;12.73;;;18.00;99.90;;;;;;4899109;29;20200;-68
2023/08/22 03:29:16;;;;;;;23.80;12.77;;;18.00;99.90;;;;;;4896890;29;20193;-67
2023/08/22 03:31:42;;;;;;;23.10;13.32;;;18.00;99.90;;;;;;4898133;29;20189;-68
2023/08/22 03:34:08;;;;;;;20.40;11.95;;;17.90;99.90;;;;;;4912504;29;20672;-68
2023/08/22 03:36:34;;;;;;;24.08;11.45;;;17.90;99.90;;;;;;4897686;29;20243;-68
2023/08/22 03:39:04;;;;;;;23.27;11.68;;;17.90;99.90;;;;;;4896707;29;20538;-68
2023/08/22 03:41:30;;;;;;;23.30;11.95;;;17.90;99.90;;;;;;4881660;29;20227;-67
2023/08/22 03:43:59;;;;;;;20.63;12.30;;;17.80;99.90;;;;;;4890522;29;20283;-66
2023/08/22 03:46:27;;;;;;;21.00;11.98;;;17.80;99.90;;;;;;4890580;29;20241;-68
2023/08/22 03:48:53;;;;;;;21.08;12.18;;;17.80;99.90;;;;;;4896624;29;20225;-68
2023/08/22 03:51:20;;;;;;;19.55;12.75;;;17.80;99.90;;;;;;4881765;29;20979;-67
2023/08/22 03:53:46;;;;;;;20.58;11.75;;;17.70;99.90;;;;;;4896422;29;20189;-67
2023/08/22 03:56:13;;;;;;;24.38;12.25;;;17.70;99.90;;;;;;4897301;29;20195;-69
2023/08/22 03:58:38;;;;;;;21.25;12.13;;;17.70;99.90;;;;;;4903910;29;20622;-67
2023/08/22 04:01:04;;;;;;;22.90;12.60;;;17.70;99.90;;;;;;4897359;29;20208;-67
2023/08/22 04:03:31;;;;;;;21.58;12.73;;;17.70;99.90;;;;;;4894435;29;20197;-67
2023/08/22 04:05:59;;;;;;;19.30;12.85;;;17.70;99.90;;;;;;4878764;29;20594;-67
2023/08/22 04:08:27;;;;;;;24.38;13.65;;;17.70;99.90;;;;;;4892633;29;20193;-66
2023/08/22 04:10:53;;;;;;;22.77;13.23;;;17.60;99.90;;;;;;4894237;29;20199;-63
2023/08/22 04:13:20;;;;;;;19.58;13.55;;;17.60;99.90;;;;;;4865063;29;20192;-68
2023/08/22 04:15:47;;;;;;;22.95;14.93;;;17.60;99.90;;;;;;4912411;29;20172;-68
2023/08/22 04:18:13;;;;;;;26.83;15.00;;;17.60;99.90;;;;;;4895844;29;20212;-68
2023/08/22 04:20:39;;;;;;;23.15;14.73;;;17.60;99.90;;;;;;4878963;29;20219;-68
2023/08/22 04:23:06;;;;;;;23.50;14.93;;;17.50;99.90;;;;;;4892857;29;20232;-65
2023/08/22 04:25:32;;;;;;;28.20;15.07;;;17.50;99.90;;;;;;4886126;29;20216;-67
2023/08/22 04:27:58;;;;;;;25.98;15.02;;;17.50;99.90;;;;;;4892879;29;20209;-68
2023/08/22 04:30:24;;;;;;;23.90;14.13;;;17.50;99.90;;;;;;4858424;29;20194;-67
2023/08/22 04:32:51;;;;;;;34.85;15.07;;;17.50;99.90;;;;;;4889473;29;20890;-67
2023/08/22 04:35:17;;;;;;;23.05;14.73;;;17.50;99.90;;;;;;4879799;29;20675;-69
2023/08/22 04:37:46;;;;;;;22.50;15.38;;;17.50;99.90;;;;;;4896557;29;20192;-69
2023/08/22 04:40:13;;;;;;;27.13;15.32;;;17.40;99.90;;;;;;4896481;29;20185;-63
2023/08/22 04:42:47;;;;;;;29.13;15.65;;;17.40;99.90;;;;;;4895447;29;20216;-69
2023/08/22 04:45:14;;;;;;;26.52;16.13;;;17.40;99.90;;;;;;4895064;29;20268;-68
2023/08/22 04:47:41;;;;;;;27.85;16.80;;;17.40;99.90;;;;;;4894667;29;20196;-68
2023/08/22 04:50:07;;;;;;;26.58;15.93;;;17.40;99.90;;;;;;4876107;29;20267;-69
2023/08/22 04:52:34;;;;;;;26.05;14.98;;;17.40;99.90;;;;;;4896411;29;20245;-67
2023/08/22 04:55:00;;;;;;;27.90;14.85;;;17.40;99.90;;;;;;4875901;29;20189;-69
2023/08/22 04:57:26;;;;;;;24.70;15.80;;;17.50;99.90;;;;;;4894538;29;20224;-68
2023/08/22 04:59:53;;;;;;;31.17;15.13;;;17.50;99.90;;;;;;4888454;29;20216;-69
2023/08/22 05:02:24;;;;;;;27.45;16.17;;;17.50;99.90;;;;;;4879426;29;20216;-64
2023/08/22 05:04:51;;;;;;;28.48;14.55;;;17.50;99.90;;;;;;4876852;29;20271;-67
2023/08/22 05:07:17;;;;;;;23.50;14.48;;;17.60;99.90;;;;;;4895905;29;20274;-68
2023/08/22 05:09:43;;;;;;;28.92;14.68;;;17.60;99.90;;;;;;4890012;29;20216;-69
2023/08/22 05:12:09;;;;;;;27.70;14.90;;;17.60;99.90;;;;;;4882664;29;20189;-70
2023/08/22 05:14:36;;;;;;;25.90;13.65;;;17.70;99.90;;;;;;4894447;29;20217;-67
2023/08/22 05:17:03;;;;;;;20.80;12.80;;;17.70;99.90;;;;;;4911524;29;20271;-67
2023/08/22 05:19:29;;;;;;;27.05;13.48;;;17.70;99.90;;;;;;4861154;29;20618;-68
2023/08/22 05:21:55;;;;;;;22.60;11.90;;;17.70;99.90;;;;;;4895718;29;20228;-67
2023/08/22 05:24:22;;;;;;;19.73;11.48;;;17.80;99.90;;;;;;4894845;29;20220;-67
2023/08/22 05:26:48;;;;;;;24.70;12.05;;;17.80;99.90;;;;;;4911018;29;20197;-67
2023/08/22 05:29:14;;;;;;;21.98;12.52;;;17.90;99.90;;;;;;4874716;29;20217;-66
2023/08/22 05:31:40;;;;;;;20.73;11.93;;;17.90;99.90;;;;;;4884181;29;20665;-68
2023/08/22 05:34:06;;;;;;;20.63;12.25;;;17.90;99.90;;;;;;4875056;29;20185;-68
2023/08/22 05:36:32;;;;;;;19.58;11.60;;;18.00;99.90;;;;;;4887200;29;20713;-68
2023/08/22 05:38:58;;;;;;;24.50;10.88;;;18.00;99.90;;;;;;4893604;29;20193;-68
2023/08/22 05:41:24;;;;;;;24.65;10.88;;;18.10;99.90;;;;;;4899358;29;20685;-68
2023/08/22 05:43:50;;;;;;;17.52;10.30;;;18.10;99.90;;;;;;4898637;29;20228;-66
2023/08/22 05:46:16;;;;;;;18.27;9.45;;;18.10;99.90;;;;;;4914697;29;20223;-66
2023/08/22 05:48:42;;;;;;;19.90;9.48;;;18.20;99.90;;;;;;4895663;29;20193;-66
2023/08/22 05:51:08;;;;;;;14.65;9.20;;;18.30;99.90;;;;;;4884890;29;20207;-65
2023/08/22 05:53:34;;;;;;;17.80;9.45;;;18.40;99.90;;;;;;4895080;29;20676;-66
2023/08/22 05:56:00;;;;;;;20.52;9.80;;;18.40;99.90;;;;;;4899102;29;20729;-68
2023/08/22 05:58:26;;;;;;;21.00;9.68;;;18.50;99.90;;;;;;4898986;29;20521;-64
2023/08/22 06:00:53;;;;;;;22.90;9.10;;;18.50;99.90;;;;;;4898931;29;20272;-66
2023/08/22 06:03:20;;;;;;;20.25;9.07;;;18.50;99.90;;;;;;4897692;29;20189;-66
2023/08/22 06:05:47;;;;;;;20.00;10.18;;;18.60;99.90;;;;;;4881622;29;20218;-66
2023/08/22 06:08:13;;;;;;;20.83;9.57;;;18.60;99.90;;;;;;4890340;29;20204;-62
2023/08/22 06:10:39;;;;;;;17.98;9.35;;;18.60;99.90;;;;;;4898276;29;20236;-68
2023/08/22 06:13:05;;;;;;;19.55;9.38;;;18.70;99.90;;;;;;4897889;29;20307;-69
2023/08/22 06:15:31;;;;;;;21.58;9.57;;;18.70;99.90;;;;;;4887625;29;20201;-70
2023/08/22 06:17:58;;;;;;;23.83;9.90;;;18.70;99.90;;;;;;4877647;29;20201;-70
2023/08/22 06:20:25;;;;;;;22.15;10.13;;;18.80;99.90;;;;;;4890607;29;20197;-68
2023/08/22 06:22:51;;;;;;;20.17;9.18;;;18.80;99.90;;;;;;4898174;29;20643;-66
2023/08/22 06:25:17;;;;;;;15.93;8.18;;;18.90;99.90;;;;;;4889647;29;20189;-71
2023/08/22 06:27:43;;;;;;;20.40;9.55;;;18.90;99.90;;;;;;4893242;29;20284;-68
2023/08/22 06:30:11;;;;;;;16.27;8.63;;;19.00;99.90;;;;;;4890398;29;20623;-70
2023/08/22 06:32:37;;;;;;;14.85;8.43;;;19.00;99.90;;;;;;4900153;29;20220;-69
2023/08/22 06:35:03;;;;;;;17.42;8.30;;;19.00;99.90;;;;;;4888118;29;20654;-68
2023/08/22 06:37:30;;;;;;;16.95;8.45;;;19.00;99.90;;;;;;4894577;29;20200;-66
2023/08/22 06:39:56;;;;;;;14.88;8.68;;;19.10;99.90;;;;;;4898021;29;20244;-67
2023/08/22 06:42:22;;;;;;;15.10;8.52;;;19.10;99.90;;;;;;4897466;29;20223;-67
2023/08/22 06:44:51;;;;;;;18.52;8.52;;;19.20;99.90;;;;;;4890458;29;20224;-66
2023/08/22 06:47:17;;;;;;;17.00;8.25;;;19.20;99.90;;;;;;4895298;29;20189;-67
2023/08/22 06:49:43;;;;;;;20.77;9.73;;;19.30;99.90;;;;;;4889040;29;20617;-71
2023/08/22 06:52:09;;;;;;;23.85;10.52;;;19.40;99.90;;;;;;4884936;29;20654;-70
2023/08/22 06:54:35;;;;;;;15.30;7.85;;;19.50;99.90;;;;;;4898210;29;20195;-70
2023/08/22 06:57:01;;;;;;;21.50;8.07;;;19.60;99.90;;;;;;4898398;29;20288;-68
2023/08/22 06:59:27;;;;;;;11.20;7.15;;;19.70;99.90;;;;;;4880752;29;20199;-67
2023/08/22 07:01:52;;;;;;;15.85;7.00;;;19.80;99.90;;;;;;4898972;29;20225;-67
2023/08/22 07:04:18;;;;;;;11.80;6.40;;;19.80;99.90;;;;;;4889707;29;20192;-69
2023/08/22 07:06:44;;;;;;;11.68;7.13;;;19.90;99.90;;;;;;4883067;29;20189;-71
2023/08/22 07:09:10;;;;;;;16.98;6.60;;;20.00;99.90;;;;;;4892285;29;20224;-76
2023/08/22 07:11:36;;;;;;;13.23;6.93;;;20.00;99.90;;;;;;4893235;29;20204;-73
2023/08/22 07:14:03;;;;;;;17.70;7.15;;;20.00;99.90;;;;;;4889096;29;20191;-61
2023/08/22 07:16:29;;;;;;;18.33;6.60;;;20.00;99.90;;;;;;4879026;29;20650;-62
2023/08/22 07:18:55;;;;;;;15.05;7.63;;;20.10;99.90;;;;;;4876073;29;20266;-65
2023/08/22 07:21:20;;;;;;;13.32;7.15;;;20.10;99.90;;;;;;4887716;29;20685;-66
2023/08/22 07:23:46;;;;;;;14.88;7.13;;;20.10;99.90;;;;;;4897979;29;20189;-67
2023/08/22 07:26:12;;;;;;;18.23;6.15;;;20.20;99.90;;;;;;4897181;29;20200;-66
2023/08/22 07:28:38;;;;;;;13.57;7.13;;;20.20;99.90;;;;;;4899578;29;20199;-68
2023/08/22 07:31:05;;;;;;;15.68;7.35;;;20.30;99.90;;;;;;4910158;29;20189;-66
2023/08/22 07:33:31;;;;;;;15.27;7.00;;;20.30;99.90;;;;;;4900836;29;20192;-69
2023/08/22 07:35:57;;;;;;;17.77;8.48;;;20.40;99.90;;;;;;4897342;29;20677;-68
2023/08/22 07:38:23;;;;;;;14.45;6.53;;;20.40;99.90;;;;;;4898499;29;20251;-66
2023/08/22 07:40:49;;;;;;;17.55;7.03;;;20.40;99.90;;;;;;4896176;29;20239;-68
2023/08/22 07:43:15;;;;;;;12.43;6.32;;;20.50;99.90;;;;;;4895658;29;20192;-67
2023/08/22 07:45:41;;;;;;;10.40;5.90;;;20.50;99.90;;;;;;4888989;29;20708;-67
2023/08/22 07:48:07;;;;;;;11.23;5.50;;;20.50;99.90;;;;;;4881945;29;20212;-67
2023/08/22 07:50:33;;;;;;;10.70;5.50;;;20.60;99.90;;;;;;4893394;29;20248;-68
2023/08/22 07:52:59;;;;;;;10.95;5.60;;;20.60;99.90;;;;;;4890208;29;20264;-66
2023/08/22 07:55:26;;;;;;;12.90;5.60;;;20.80;99.90;;;;;;4890021;29;20752;-67
2023/08/22 07:57:52;;;;;;;13.73;5.72;;;20.80;99.90;;;;;;4900711;29;20189;-67
2023/08/22 08:00:18;;;;;;;9.68;5.22;;;20.80;99.90;;;;;;4888683;29;20200;-68
2023/08/22 08:02:45;;;;;;;13.05;5.13;;;20.80;99.90;;;;;;4869555;29;20312;-66
2023/08/22 08:05:12;;;;;;;9.90;4.90;;;20.80;99.90;;;;;;4889996;29;20630;-67
2023/08/22 08:07:39;;;;;;;11.63;5.20;;;20.80;99.90;;;;;;4897078;29;20188;-68
2023/08/22 08:10:05;;;;;;;11.65;5.75;;;20.80;99.90;;;;;;4897596;29;20188;-67
2023/08/22 08:12:31;;;;;;;11.95;6.15;;;20.90;99.90;;;;;;4903086;29;20222;-65
2023/08/22 08:14:57;;;;;;;11.68;5.45;;;20.90;99.90;;;;;;4879462;29;20197;-69
2023/08/22 08:17:23;;;;;;;11.43;5.15;;;20.90;99.90;;;;;;4892930;29;20641;-69
2023/08/22 08:19:49;;;;;;;12.00;5.20;;;21.00;99.90;;;;;;4888499;29;20189;-66
2023/08/22 08:22:15;;;;;;;14.52;5.72;;;21.00;99.90;;;;;;4862555;29;20229;-70
2023/08/22 08:24:41;;;;;;;12.38;5.22;;;21.10;99.90;;;;;;4897485;29;20196;-64
2023/08/22 08:27:07;;;;;;;8.88;5.10;;;21.20;99.90;;;;;;4895056;29;20654;-69
2023/08/22 08:29:33;;;;;;;11.50;5.35;;;21.30;99.90;;;;;;4896239;29;20216;-69
2023/08/22 08:32:00;;;;;;;8.85;5.15;;;21.40;99.90;;;;;;4893475;29;20212;-62
2023/08/22 08:34:27;;;;;;;15.82;5.68;;;21.50;99.90;;;;;;4885568;29;20238;-67
2023/08/22 08:36:53;;;;;;;9.45;4.43;;;21.70;99.90;;;;;;4884839;29;20245;-77
2023/08/22 08:39:19;;;;;;;8.10;4.10;;;21.80;99.90;;;;;;4887473;29;20196;-77
2023/08/22 08:42:14;;;;;;;11.40;4.35;;;21.90;99.90;;;;;;4893939;29;20642;-77
2023/08/22 08:44:41;;;;;;;5.43;3.92;;;22.10;99.90;;;;;;4893362;29;20232;-66
2023/08/22 08:47:10;;;;;;;5.55;3.50;;;22.30;99.90;;;;;;4895094;29;20276;-67
2023/08/22 08:49:37;;;;;;;8.15;3.58;;;22.40;99.90;;;;;;4891568;29;20658;-68
2023/08/22 08:52:05;;;;;;;7.50;3.33;;;22.40;99.90;;;;;;4895326;29;20216;-66
2023/08/22 08:54:32;;;;;;;6.45;3.10;;;22.40;99.90;;;;;;4886124;29;20176;-69
2023/08/22 08:56:59;;;;;;;12.07;3.42;;;22.50;99.90;;;;;;4890181;29;20205;-72
2023/08/22 08:59:25;;;;;;;5.63;2.92;;;22.60;99.90;;;;;;4892033;29;20189;-68
2023/08/22 09:01:51;;;;;;;5.55;3.53;;;22.70;99.90;;;;;;4895763;29;20236;-65
2023/08/22 09:04:18;;;;;;;5.97;3.67;;;22.80;99.90;;;;;;4881846;29;20253;-68
2023/08/22 09:06:46;;;;;;;7.05;3.13;;;22.90;99.90;;;;;;4896717;29;20522;-70
2023/08/22 09:09:13;;;;;;;6.10;2.53;;;22.90;99.90;;;;;;4892533;29;20233;-69
2023/08/22 09:11:47;;;;;;;5.13;2.72;;;23.00;99.90;;;;;;4890168;29;20280;-68
2023/08/22 09:14:20;;;;;;;6.38;3.03;;;23.00;99.90;;;;;;4889717;29;20194;-63
2023/08/22 09:16:46;;;;;;;4.40;2.50;;;22.90;99.90;;;;;;4877337;29;20200;-69
2023/08/22 09:19:12;;;;;;;10.30;2.85;;;22.90;99.90;;;;;;4885048;29;20197;-67
2023/08/22 09:21:38;;;;;;;7.50;2.90;;;22.80;99.90;;;;;;4880349;29;20251;-68
2023/08/22 09:24:09;;;;;;;9.85;3.00;;;22.80;99.90;;;;;;4871611;29;20276;-66
2023/08/22 09:26:44;;;;;;;6.88;3.10;;;22.80;99.90;;;;;;4878691;29;20201;-66
2023/08/22 09:29:11;;;;;;;6.68;3.30;;;22.80;99.90;;;;;;4879569;29;20194;-65
2023/08/22 09:31:37;;;;;;;6.93;2.92;;;22.70;99.90;;;;;;4895346;29;20795;-67
2023/08/22 09:34:09;;;;;;;5.28;3.00;;;22.70;99.90;;;;;;4892955;29;20184;-67
2023/08/22 09:36:44;;;;;;;9.18;3.90;;;22.70;99.90;;;;;;4884620;29;20682;-66
2023/08/22 09:39:16;;;;;;;6.93;3.55;;;22.80;99.90;;;;;;4878991;29;20192;-66
2023/08/22 09:41:42;;;;;;;11.23;3.33;;;22.80;99.90;;;;;;4876640;29;20220;-65
2023/08/22 09:44:10;;;;;;;10.02;3.20;;;22.80;99.90;;;;;;4878701;29;20235;-65
2023/08/22 09:46:41;;;;;;;7.68;4.03;;;22.90;99.90;;;;;;4887598;29;20208;-66
2023/08/22 09:49:10;;;;;;;7.60;3.80;;;22.90;99.90;;;;;;4882704;29;20188;-67
2023/08/22 09:51:38;;;;;;;9.10;4.03;;;23.00;99.90;;;;;;4909770;29;20211;-66
2023/08/22 09:54:06;;;;;;;10.45;4.22;;;23.00;99.90;;;;;;4895114;29;20220;-65
2023/08/22 09:56:32;;;;;;;7.00;3.83;;;23.00;99.90;;;;;;4896304;29;20187;-64
2023/08/22 09:59:02;;;;;;;9.02;4.88;;;22.90;99.90;;;;;;4886969;29;21416;-66
2023/08/22 10:01:30;;;;;;;11.50;3.65;;;22.90;99.90;;;;;;4891355;29;20309;-66
2023/08/22 10:03:58;;;;;;;8.73;4.97;;;22.90;99.90;;;;;;4879560;29;20193;-67
2023/08/22 10:06:30;;;;;;;8.02;4.60;;;22.90;99.90;;;;;;4895572;29;20184;-67
2023/08/22 10:08:57;;;;;;;14.02;5.85;;;23.00;99.90;;;;;;4891945;29;20272;-67
2023/08/22 10:11:26;;;;;;;10.85;5.55;;;23.00;99.90;;;;;;4891174;29;20208;-66
2023/08/22 10:13:52;;;;;;;11.07;5.40;;;23.00;99.90;;;;;;4895902;29;20272;-67
2023/08/22 10:16:22;;;;;;;10.60;5.22;;;23.10;99.90;;;;;;4895534;29;20290;-65
2023/08/22 10:19:00;;;;;;;11.75;5.68;;;23.10;99.90;;;;;;4891954;29;21147;-66
2023/08/22 10:21:26;;;;;;;10.60;5.50;;;23.10;99.90;;;;;;4889723;29;20244;-69
2023/08/22 10:23:52;;;;;;;7.68;4.85;;;23.10;99.90;;;;;;4912741;29;20666;-67
2023/08/22 10:26:22;;;;;;;12.63;5.07;;;23.20;99.90;;;;;;4899252;29;20184;-65
2023/08/22 10:29:14;;;;;;;10.45;5.03;;;23.30;99.90;;;;;;4897194;29;20195;-66
2023/08/22 10:32:18;;;;;;;9.57;5.05;;;23.40;99.90;;;;;;4893533;29;20188;-67
2023/08/22 10:34:44;;;;;;;9.27;4.32;;;23.50;99.90;;;;;;4823085;29;20331;-68
2023/08/22 10:37:17;;;;;;;8.95;5.15;;;23.50;99.90;;;;;;4878950;29;20188;-66
2023/08/22 10:39:45;;;;;;;13.63;4.97;;;23.50;99.90;;;;;;4896422;29;20185;-68
2023/08/22 10:42:13;;;;;;;8.60;4.18;;;23.70;99.90;;;;;;4894264;29;20220;-68
2023/08/22 10:44:40;;;;;;;13.77;5.38;;;23.80;99.90;;;;;;4897896;29;20228;-69
2023/08/22 10:47:08;;;;;;;10.50;3.95;;;23.90;99.90;;;;;;4913413;29;20200;-67
2023/08/22 10:49:39;;;;;;;7.10;3.90;;;24.00;99.90;;;;;;4897735;29;20228;-67
2023/08/22 10:52:09;;;;;;;12.55;4.78;;;24.10;99.90;;;;;;4892506;29;20187;-68
2023/08/22 10:54:57;;;;;;;9.60;4.60;;;24.20;99.90;;;;;;4898984;29;20200;-67
2023/08/22 10:57:24;;;;;;;9.45;4.28;;;24.40;99.90;;;;;;4897794;29;20223;-68
2023/08/22 10:59:59;;;;;;;8.27;4.72;;;24.50;99.90;;;;;;4898801;29;20211;-68
2023/08/22 11:02:28;;;;;;;7.72;4.00;;;24.60;99.90;;;;;;4890996;29;20227;-68
2023/08/22 11:04:57;;;;;;;10.00;4.57;;;24.70;99.90;;;;;;4897032;29;20208;-66
2023/08/22 11:07:24;;;;;;;10.15;3.70;;;24.70;99.90;;;;;;4897822;29;20197;-66
2023/08/22 11:09:51;;;;;;;10.13;4.45;;;24.80;99.90;;;;;;4897036;29;20181;-64
2023/08/22 11:12:22;;;;;;;8.73;4.68;;;24.90;99.90;;;;;;4890821;29;20356;-65
2023/08/22 11:14:49;;;;;;;6.40;3.80;;;24.90;99.90;;;;;;4894931;29;20240;-67
2023/08/22 11:17:16;;;;;;;7.05;4.05;;;24.90;99.90;;;;;;4898571;29;20185;-67
2023/08/22 11:19:42;;;;;;;6.00;3.13;;;25.00;99.90;;;;;;4898590;29;20189;-67
2023/08/22 11:22:09;;;;;;;6.53;3.20;;;25.00;99.90;;;;;;4895975;29;20225;-65
2023/08/22 11:24:35;;;;;;;7.63;3.38;;;25.10;99.90;;;;;;4874910;29;20192;-67
2023/08/22 11:27:05;;;;;;;7.75;3.22;;;25.20;99.90;;;;;;4890897;29;20245;-67
2023/08/22 11:29:52;;;;;;;4.95;3.00;;;25.20;99.90;;;;;;4878364;29;20779;-65
2023/08/22 11:32:25;;;;;;;6.15;2.70;;;25.20;99.90;;;;;;4906326;29;20196;-66
2023/08/22 11:34:53;;;;;;;5.85;2.33;;;25.20;99.90;;;;;;4890352;29;20177;-68
2023/08/22 11:37:19;;;;;;;5.53;2.35;;;25.30;99.90;;;;;;4893339;29;20261;-68
2023/08/22 11:39:47;;;;;;;4.78;2.10;;;25.40;99.90;;;;;;4898258;29;20180;-67
2023/08/22 11:42:17;;;;;;;6.43;2.40;;;25.50;99.90;;;;;;4892876;29;20267;-66
2023/08/22 11:44:59;;;;;;;5.63;2.55;;;25.60;99.90;;;;;;4894634;29;20233;-67
2023/08/22 11:47:45;;;;;;;4.32;2.10;;;25.60;99.90;;;;;;4894864;29;20188;-67
2023/08/22 11:50:15;;;;;;;6.18;2.50;;;25.70;99.90;;;;;;4897916;29;20248;-67
2023/08/22 11:52:45;;;;;;;8.32;2.30;;;25.80;99.90;;;;;;4898274;29;20189;-66
2023/08/22 11:55:14;;;;;;;7.78;2.88;;;25.80;99.90;;;;;;4895225;29;20630;-64
2023/08/22 11:57:42;;;;;;;6.28;2.22;;;25.80;99.90;;;;;;4887205;29;20188;-66
2023/08/22 12:00:12;;;;;;;6.18;2.60;;;25.70;99.90;;;;;;4894433;29;20196;-66
2023/08/22 12:02:43;;;;;;;8.93;2.65;;;25.50;99.90;;;;;;4897944;29;20216;-66
2023/08/22 12:05:33;;;;;;;5.65;1.90;;;25.40;99.90;;;;;;4897416;29;20248;-65
2023/08/22 12:08:15;;;;;;;4.90;1.85;;;25.40;99.90;;;;;;4889626;29;20188;-65
2023/08/22 12:10:46;;;;;;;5.93;2.47;;;25.50;99.90;;;;;;4880941;29;20207;-65
2023/08/22 12:13:16;;;;;;;4.72;1.90;;;25.40;99.70;;;;;;4880290;29;20189;-66
2023/08/22 12:15:42;;;;;;;5.07;1.70;;;25.40;99.60;;;;;;4878695;29;20280;-65
2023/08/22 12:18:09;;;;;;;5.10;1.58;;;25.30;99.80;;;;;;4886980;29;20196;-62
2023/08/22 12:20:38;;;;;;;3.25;1.50;;;25.20;99.20;;;;;;4897304;29;20192;-67
2023/08/22 12:23:05;;;;;;;6.40;1.80;;;25.20;98.90;;;;;;4896990;29;20299;-65
2023/08/22 12:25:32;;;;;;;3.85;1.83;;;25.20;98.80;;;;;;4896086;29;20589;-66
2023/08/22 12:27:58;;;;;;;3.33;1.60;;;25.30;98.60;;;;;;4894053;29;20189;-64
2023/08/22 12:30:24;;;;;;;4.50;1.95;;;25.30;98.40;;;;;;4892300;29;20328;-65
2023/08/22 12:32:50;;;;;;;3.97;1.70;;;25.40;98.20;;;;;;4877091;29;20650;-66
2023/08/22 12:35:16;;;;;;;2.15;1.65;;;25.40;97.90;;;;;;4890615;29;20189;-66
2023/08/22 12:37:41;;;;;;;5.00;1.70;;;25.50;97.80;;;;;;4896696;29;20214;-67
2023/08/22 12:40:10;;;;;;;5.32;2.10;;;25.60;97.90;;;;;;4887901;29;20192;-66